Time;durP1;ratioP1;P1;durP2;ratioP2;P2;SDS_P1;SDS_P2;PMS_P1;PMS_P2;Temp;Humidity;BMP_temperature;BMP_pressure;BME280_temperature;BME280_humidity;BME280_pressure;Samples;Min_cycle;Max_cycle;Signal;HPM_P1;HPM_P2
2021/08/28 00:00:54;;;;;;;7.10;3.80;;;16.60;99.90;;;;;;4978183;28;20461;-82
2021/08/28 00:03:22;;;;;;;10.00;4.90;;;16.50;99.90;;;;;;4969846;28;20451;-83
2021/08/28 00:05:49;;;;;;;14.03;5.43;;;16.40;99.90;;;;;;4963307;28;20486;-83
2021/08/28 00:08:16;;;;;;;4.50;2.87;;;16.50;99.90;;;;;;4961365;28;20465;-84
2021/08/28 00:10:43;;;;;;;7.57;3.40;;;16.50;99.90;;;;;;4949641;28;20845;-83
2021/08/28 00:13:11;;;;;;;6.00;3.40;;;16.50;99.90;;;;;;4961561;28;21061;-82
2021/08/28 00:15:38;;;;;;;5.73;3.60;;;16.50;99.90;;;;;;4949642;28;20462;-84
2021/08/28 00:18:05;;;;;;;6.77;3.50;;;16.50;99.90;;;;;;4960889;28;20567;-82
2021/08/28 00:20:36;;;;;;;5.43;3.40;;;16.50;99.90;;;;;;4958334;28;20459;-86
2021/08/28 00:23:04;;;;;;;6.83;3.57;;;16.50;99.90;;;;;;4963727;28;21411;-84
2021/08/28 00:25:32;;;;;;;4.23;3.83;;;16.50;99.90;;;;;;4962449;28;20986;-83
2021/08/28 00:27:59;;;;;;;6.13;3.97;;;16.50;99.90;;;;;;4965363;28;20848;-83
2021/08/28 00:30:27;;;;;;;5.47;3.63;;;16.50;99.90;;;;;;4963101;28;21044;-84
2021/08/28 00:32:53;;;;;;;9.27;4.23;;;16.50;99.90;;;;;;4961667;28;20451;-85
2021/08/28 00:35:21;;;;;;;6.23;3.80;;;16.50;99.90;;;;;;4943235;28;20992;-84
2021/08/28 00:37:47;;;;;;;5.20;3.50;;;16.50;99.90;;;;;;4964652;28;20489;-80
2021/08/28 00:40:14;;;;;;;8.33;4.07;;;16.40;99.90;;;;;;4949029;28;20459;-83
2021/08/28 00:42:51;;;;;;;9.50;4.47;;;16.50;99.90;;;;;;4946126;28;21039;-85
2021/08/28 00:45:34;;;;;;;6.90;4.40;;;16.50;99.90;;;;;;4961158;28;21057;-84
2021/08/28 00:48:12;;;;;;;6.77;4.17;;;16.50;99.90;;;;;;4961530;28;20439;-82
2021/08/28 00:50:42;;;;;;;7.40;4.43;;;16.50;99.90;;;;;;4956652;28;20459;-84
2021/08/28 00:53:14;;;;;;;6.23;4.80;;;16.40;99.90;;;;;;4964834;28;20482;-86
2021/08/28 00:55:52;;;;;;;12.40;4.77;;;16.30;99.90;;;;;;4979165;28;20451;-83
2021/08/28 00:58:20;;;;;;;8.03;5.10;;;16.30;99.90;;;;;;5001380;28;20488;-82
2021/08/28 01:00:56;;;;;;;6.50;4.90;;;16.30;99.90;;;;;;4985876;28;20455;-82
2021/08/28 01:03:30;;;;;;;5.03;3.90;;;16.40;99.90;;;;;;4995185;28;20505;-83
2021/08/28 01:06:24;;;;;;;7.90;4.53;;;16.40;99.90;;;;;;4948382;28;20482;-81
2021/08/28 01:08:56;;;;;;;5.50;4.27;;;16.40;99.90;;;;;;4960626;28;20466;-83
2021/08/28 01:11:26;;;;;;;5.70;4.53;;;16.30;99.90;;;;;;4957901;28;20568;-84
2021/08/28 01:14:06;;;;;;;7.10;4.30;;;16.30;99.90;;;;;;4956213;28;20455;-82
2021/08/28 01:16:34;;;;;;;10.73;4.60;;;16.30;99.90;;;;;;4945381;28;20481;-83
2021/08/28 01:19:01;;;;;;;9.97;5.17;;;16.30;99.90;;;;;;4956683;28;20546;-83
2021/08/28 01:21:34;;;;;;;11.33;6.27;;;16.30;99.90;;;;;;4963062;28;20470;-83
2021/08/28 01:24:05;;;;;;;13.20;5.90;;;16.40;99.90;;;;;;4959771;28;20527;-84
2021/08/28 01:26:40;;;;;;;8.10;5.13;;;16.40;99.90;;;;;;4963768;28;20471;-85
2021/08/28 01:29:17;;;;;;;6.40;4.33;;;16.30;99.90;;;;;;4955946;28;20468;-82
2021/08/28 01:31:44;;;;;;;7.13;4.50;;;16.30;99.90;;;;;;4964645;28;20462;-82
2021/08/28 01:34:12;;;;;;;6.13;4.50;;;16.40;99.90;;;;;;4964697;28;20551;-84
2021/08/28 01:36:39;;;;;;;9.50;6.07;;;16.40;99.90;;;;;;4964464;28;20479;-81
2021/08/28 01:39:07;;;;;;;8.60;5.60;;;16.50;99.90;;;;;;4949389;28;20498;-84
2021/08/28 01:41:34;;;;;;;9.30;4.57;;;16.50;99.90;;;;;;4964551;28;20470;-85
2021/08/28 01:44:01;;;;;;;7.33;4.60;;;16.40;99.90;;;;;;4961941;28;20455;-80
2021/08/28 01:46:28;;;;;;;6.40;5.00;;;16.40;99.90;;;;;;4968207;28;20475;-79
2021/08/28 01:48:56;;;;;;;8.80;5.87;;;16.30;99.90;;;;;;4970510;28;20524;-81
2021/08/28 01:51:23;;;;;;;6.33;5.67;;;16.30;99.90;;;;;;4969216;28;20462;-84
2021/08/28 01:53:51;;;;;;;9.60;6.20;;;16.30;99.90;;;;;;4967555;28;20463;-82
2021/08/28 01:56:18;;;;;;;7.37;5.97;;;16.30;99.90;;;;;;4970866;28;20467;-85
2021/08/28 01:58:45;;;;;;;9.57;6.17;;;16.30;99.90;;;;;;4970971;28;20486;-83
2021/08/28 02:01:12;;;;;;;10.33;5.80;;;16.40;99.90;;;;;;4971181;28;20454;-82
2021/08/28 02:03:39;;;;;;;13.23;6.33;;;16.30;99.90;;;;;;4946569;28;20469;-86
2021/08/28 02:06:11;;;;;;;7.57;6.10;;;16.40;99.90;;;;;;4942547;28;20475;-84
2021/08/28 02:08:47;;;;;;;6.50;5.53;;;16.40;99.90;;;;;;4962171;28;20461;-84
2021/08/28 02:11:18;;;;;;;11.87;5.43;;;16.30;99.90;;;;;;4969614;28;20451;-86
2021/08/28 02:14:01;;;;;;;11.37;5.40;;;16.30;99.90;;;;;;4970537;28;20467;-82
2021/08/28 02:16:33;;;;;;;7.77;6.17;;;16.30;99.90;;;;;;4953321;28;20473;-84
2021/08/28 02:19:14;;;;;;;7.97;5.60;;;16.30;99.90;;;;;;4961633;28;20490;-83
2021/08/28 02:21:41;;;;;;;7.00;6.03;;;16.30;99.90;;;;;;4967951;28;20455;-84
2021/08/28 02:24:12;;;;;;;9.13;7.03;;;16.30;99.90;;;;;;4950844;28;20458;-84
2021/08/28 02:26:41;;;;;;;8.90;6.23;;;16.30;99.90;;;;;;4966728;28;20479;-82
2021/08/28 02:29:16;;;;;;;8.10;6.67;;;16.30;99.90;;;;;;4963601;28;20455;-84
2021/08/28 02:31:46;;;;;;;8.50;5.73;;;16.30;99.90;;;;;;4968371;28;20443;-82
2021/08/28 02:34:13;;;;;;;7.90;6.13;;;16.30;99.90;;;;;;4968217;28;20471;-82
2021/08/28 02:36:42;;;;;;;7.33;5.87;;;16.30;99.90;;;;;;4967011;28;20491;-83
2021/08/28 02:39:09;;;;;;;9.27;7.50;;;16.30;99.90;;;;;;4969918;28;20537;-83
2021/08/28 02:41:37;;;;;;;7.27;6.53;;;16.30;99.90;;;;;;4972616;28;20445;-84
2021/08/28 02:44:07;;;;;;;9.67;6.53;;;16.30;99.90;;;;;;4955678;28;20515;-84
2021/08/28 02:46:35;;;;;;;15.93;7.97;;;16.30;99.90;;;;;;4965896;28;20490;-84
2021/08/28 02:49:03;;;;;;;12.27;8.10;;;16.30;99.90;;;;;;4966867;28;20467;-83
2021/08/28 02:51:31;;;;;;;12.60;8.40;;;16.30;99.90;;;;;;4950797;28;20459;-82
2021/08/28 02:54:00;;;;;;;13.27;8.57;;;16.30;99.90;;;;;;4950493;28;20455;-84
2021/08/28 02:56:29;;;;;;;14.47;9.93;;;16.30;99.90;;;;;;4965086;28;20475;-82
2021/08/28 02:58:56;;;;;;;15.83;9.60;;;16.30;99.90;;;;;;4963003;28;20506;-83
2021/08/28 03:01:25;;;;;;;14.13;10.20;;;16.30;99.90;;;;;;4965286;28;20451;-83
2021/08/28 03:03:54;;;;;;;12.37;10.30;;;16.30;99.90;;;;;;4952986;28;20493;-82
2021/08/28 03:06:21;;;;;;;13.00;10.23;;;16.30;99.90;;;;;;4951865;28;20467;-82
2021/08/28 03:08:47;;;;;;;14.17;10.30;;;16.30;99.90;;;;;;4964297;28;20455;-83
2021/08/28 03:11:15;;;;;;;15.97;10.50;;;16.30;99.90;;;;;;4962519;28;20481;-82
2021/08/28 03:13:42;;;;;;;15.87;10.67;;;16.30;99.90;;;;;;4966700;28;20462;-80
2021/08/28 03:16:12;;;;;;;19.27;11.33;;;16.30;99.90;;;;;;4972147;28;20494;-83
2021/08/28 03:18:41;;;;;;;17.03;12.40;;;16.30;99.90;;;;;;4955468;28;20858;-82
2021/08/28 03:21:10;;;;;;;17.50;13.43;;;16.40;99.90;;;;;;4951931;28;20460;-83
2021/08/28 03:23:39;;;;;;;18.13;12.50;;;16.40;99.90;;;;;;4950293;28;20458;-85
2021/08/28 03:26:08;;;;;;;17.83;13.63;;;16.40;99.90;;;;;;4963006;28;20475;-83
2021/08/28 03:28:36;;;;;;;20.93;14.67;;;16.40;99.90;;;;;;4949536;28;20450;-83
2021/08/28 03:31:04;;;;;;;24.90;15.07;;;16.40;99.90;;;;;;4965934;28;22094;-83
2021/08/28 03:33:32;;;;;;;23.93;15.93;;;16.40;99.90;;;;;;4994571;28;20455;-83
2021/08/28 03:36:01;;;;;;;25.47;16.40;;;16.40;99.90;;;;;;4982183;28;20471;-83
2021/08/28 03:38:28;;;;;;;24.93;15.07;;;16.40;99.90;;;;;;5000335;28;20854;-83
2021/08/28 03:40:55;;;;;;;21.63;16.70;;;16.40;99.90;;;;;;4981591;28;20466;-84
2021/08/28 03:43:21;;;;;;;24.53;16.53;;;16.40;99.90;;;;;;4981664;28;20459;-82
2021/08/28 03:45:49;;;;;;;21.93;16.40;;;16.40;99.90;;;;;;4981128;28;20479;-83
2021/08/28 03:48:17;;;;;;;24.47;15.83;;;16.40;99.90;;;;;;4981715;28;20455;-83
2021/08/28 03:50:44;;;;;;;24.97;17.97;;;16.30;99.90;;;;;;4983133;28;20455;-82
2021/08/28 03:53:10;;;;;;;18.33;14.40;;;16.30;99.90;;;;;;4991713;28;20419;-84
2021/08/28 03:55:37;;;;;;;23.10;15.70;;;16.30;99.90;;;;;;5006108;28;20447;-82
2021/08/28 03:58:04;;;;;;;18.53;14.33;;;16.30;99.90;;;;;;5008207;28;20443;-83
2021/08/28 04:00:30;;;;;;;18.27;14.83;;;16.40;99.90;;;;;;5015670;28;20515;-83
2021/08/28 04:02:57;;;;;;;22.03;14.97;;;16.30;99.90;;;;;;5017516;28;20446;-85
2021/08/28 04:05:24;;;;;;;24.73;15.40;;;16.40;99.90;;;;;;5010427;28;20463;-84
2021/08/28 04:07:51;;;;;;;22.30;15.00;;;16.40;99.90;;;;;;4989183;28;20455;-85
2021/08/28 04:10:19;;;;;;;18.17;13.83;;;16.40;99.90;;;;;;5007569;28;20490;-83
2021/08/28 04:12:45;;;;;;;25.10;17.13;;;16.40;99.90;;;;;;5001642;28;20447;-86
2021/08/28 04:15:12;;;;;;;25.30;16.90;;;16.40;99.90;;;;;;4998588;28;20494;-86
2021/08/28 04:17:39;;;;;;;24.57;18.77;;;16.40;99.90;;;;;;5015973;28;20455;-87
2021/08/28 04:20:06;;;;;;;27.20;17.97;;;16.30;99.90;;;;;;5016259;28;20475;-85
2021/08/28 04:22:32;;;;;;;27.50;18.10;;;16.40;99.90;;;;;;4999735;28;20669;-84
2021/08/28 04:24:59;;;;;;;20.00;16.50;;;16.40;99.90;;;;;;4972189;28;20459;-81
2021/08/28 04:27:26;;;;;;;25.80;18.13;;;16.40;99.90;;;;;;4967269;28;20467;-81
2021/08/28 04:29:53;;;;;;;21.17;16.73;;;16.40;99.90;;;;;;4953491;28;20459;-84
2021/08/28 04:32:19;;;;;;;27.50;18.93;;;16.40;99.90;;;;;;4976879;28;20960;-81
2021/08/28 04:34:46;;;;;;;27.83;18.40;;;16.40;99.90;;;;;;5002906;28;20459;-83
2021/08/28 04:37:13;;;;;;;27.87;18.33;;;16.40;99.90;;;;;;4995757;28;20470;-82
2021/08/28 04:39:39;;;;;;;27.63;17.13;;;16.40;99.90;;;;;;4981128;28;20499;-83
2021/08/28 04:42:06;;;;;;;24.37;16.30;;;16.50;99.90;;;;;;4996621;28;21015;-83
2021/08/28 04:44:33;;;;;;;21.10;16.87;;;16.50;99.90;;;;;;5003009;28;20447;-82
2021/08/28 04:46:59;;;;;;;26.63;17.70;;;16.40;99.90;;;;;;4992759;28;20467;-82
2021/08/28 04:49:26;;;;;;;26.50;16.77;;;16.40;99.90;;;;;;4982102;28;20714;-81
2021/08/28 04:51:53;;;;;;;22.10;17.50;;;16.50;99.90;;;;;;5000279;28;20485;-82
2021/08/28 04:54:19;;;;;;;30.30;21.40;;;16.40;99.90;;;;;;4993415;28;20470;-83
2021/08/28 04:56:46;;;;;;;25.10;17.80;;;16.40;99.90;;;;;;5006484;28;20474;-83
2021/08/28 04:59:13;;;;;;;24.47;17.27;;;16.40;99.90;;;;;;5013303;28;20471;-83
2021/08/28 05:01:41;;;;;;;25.17;17.33;;;16.40;99.90;;;;;;5009135;28;20478;-85
2021/08/28 05:04:08;;;;;;;25.57;18.80;;;16.30;99.90;;;;;;4983475;28;20984;-84
2021/08/28 05:06:35;;;;;;;23.30;16.90;;;16.30;99.90;;;;;;4986594;28;20479;-84
2021/08/28 05:09:02;;;;;;;27.57;18.80;;;16.30;99.90;;;;;;4981009;28;20483;-84
2021/08/28 05:11:29;;;;;;;22.97;16.20;;;16.30;99.90;;;;;;4974370;28;20447;-83
2021/08/28 05:13:55;;;;;;;22.50;17.80;;;16.30;99.90;;;;;;4974827;28;20464;-83
2021/08/28 05:16:22;;;;;;;18.83;14.33;;;16.40;99.90;;;;;;4967902;28;20467;-83
2021/08/28 05:18:49;;;;;;;19.50;15.57;;;16.50;99.90;;;;;;4982493;28;21059;-83
2021/08/28 05:21:15;;;;;;;20.30;13.87;;;16.60;99.90;;;;;;4982879;28;20454;-85
2021/08/28 05:23:42;;;;;;;15.57;13.53;;;16.50;99.90;;;;;;4989355;28;20462;-85
2021/08/28 05:26:09;;;;;;;14.40;12.47;;;16.50;99.90;;;;;;4983316;28;20594;-84
2021/08/28 05:28:35;;;;;;;17.30;13.10;;;16.40;99.90;;;;;;4992259;28;20449;-83
2021/08/28 05:31:03;;;;;;;16.93;13.10;;;16.40;99.90;;;;;;4984019;28;20445;-83
2021/08/28 05:33:30;;;;;;;14.23;11.70;;;16.40;99.90;;;;;;4981452;28;20452;-83
2021/08/28 05:35:56;;;;;;;11.13;10.03;;;16.30;99.90;;;;;;4990583;28;20483;-84
2021/08/28 05:38:23;;;;;;;12.80;11.40;;;16.30;99.90;;;;;;4987582;28;20491;-82
2021/08/28 05:40:50;;;;;;;12.20;11.10;;;16.30;99.90;;;;;;4986163;28;20447;-82
2021/08/28 05:43:16;;;;;;;11.33;10.23;;;16.30;99.90;;;;;;4997271;28;20462;-83
2021/08/28 05:45:43;;;;;;;11.43;10.27;;;16.40;99.90;;;;;;4995825;28;20457;-83
2021/08/28 05:48:10;;;;;;;13.17;10.13;;;16.40;99.90;;;;;;4980096;28;20953;-84
2021/08/28 05:50:36;;;;;;;16.03;9.30;;;16.30;99.90;;;;;;4994586;28;20459;-84
2021/08/28 05:53:03;;;;;;;12.10;9.70;;;16.40;99.90;;;;;;4997041;28;20455;-83
2021/08/28 05:55:30;;;;;;;11.53;10.40;;;16.40;99.90;;;;;;4991233;28;20478;-85
2021/08/28 05:57:56;;;;;;;13.30;9.40;;;16.40;99.90;;;;;;4997161;28;20481;-85
2021/08/28 06:00:23;;;;;;;12.53;10.20;;;16.40;99.90;;;;;;4992453;28;20482;-84
2021/08/28 06:02:50;;;;;;;11.10;9.20;;;16.40;99.90;;;;;;5015592;28;20499;-85
2021/08/28 06:05:17;;;;;;;12.30;9.23;;;16.40;99.90;;;;;;5000086;28;20465;-85
2021/08/28 06:07:43;;;;;;;10.50;8.47;;;16.40;99.90;;;;;;4993404;28;20535;-85
2021/08/28 06:10:10;;;;;;;9.20;8.20;;;16.30;99.90;;;;;;4997894;28;20442;-85
2021/08/28 06:12:38;;;;;;;12.20;9.30;;;16.40;99.90;;;;;;5019416;28;20441;-85
2021/08/28 06:15:05;;;;;;;9.67;8.77;;;16.30;99.90;;;;;;5001178;28;20427;-84
2021/08/28 06:17:33;;;;;;;8.77;7.90;;;16.40;99.90;;;;;;5004320;28;20463;-84
2021/08/28 06:20:00;;;;;;;12.00;8.10;;;16.40;99.90;;;;;;5020458;28;20501;-84
2021/08/28 06:22:27;;;;;;;8.17;7.47;;;16.50;99.90;;;;;;5026196;28;20452;-83
2021/08/28 06:24:53;;;;;;;8.97;8.17;;;16.50;99.90;;;;;;5026439;28;20464;-84
2021/08/28 06:27:20;;;;;;;6.80;6.30;;;16.60;99.90;;;;;;4986988;28;20474;-83
2021/08/28 06:29:47;;;;;;;7.37;6.67;;;16.50;99.90;;;;;;5003235;28;20821;-83
2021/08/28 06:32:13;;;;;;;6.40;5.90;;;16.50;99.90;;;;;;5000124;28;20454;-83
2021/08/28 06:34:40;;;;;;;8.37;6.87;;;16.50;99.90;;;;;;4991469;28;20529;-83
2021/08/28 06:37:07;;;;;;;6.87;6.20;;;16.50;99.90;;;;;;4996584;28;20465;-85
2021/08/28 06:39:34;;;;;;;7.27;6.60;;;16.60;99.90;;;;;;5000036;28;20880;-83
2021/08/28 06:42:02;;;;;;;5.90;5.40;;;16.60;99.90;;;;;;5000342;28;20473;-84
2021/08/28 06:44:28;;;;;;;6.20;5.70;;;16.70;99.90;;;;;;4998878;28;20451;-84
2021/08/28 06:46:55;;;;;;;6.23;4.70;;;16.60;99.90;;;;;;4999140;28;20544;-83
2021/08/28 06:49:22;;;;;;;4.80;4.40;;;16.60;99.90;;;;;;4972100;28;20483;-83
2021/08/28 06:51:48;;;;;;;4.10;3.70;;;16.70;99.90;;;;;;4983331;28;20463;-84
2021/08/28 06:54:15;;;;;;;4.40;4.00;;;16.70;99.90;;;;;;4987368;28;20465;-84
2021/08/28 06:56:41;;;;;;;4.03;3.73;;;16.70;99.90;;;;;;4998550;28;20505;-83
2021/08/28 06:59:08;;;;;;;3.50;3.20;;;16.80;99.90;;;;;;4999153;28;20482;-83
2021/08/28 07:01:35;;;;;;;3.30;3.07;;;16.80;99.90;;;;;;4980164;28;20459;-83
2021/08/28 07:04:02;;;;;;;4.33;3.93;;;16.90;99.90;;;;;;4983508;28;20915;-84
2021/08/28 07:06:29;;;;;;;3.90;3.60;;;17.00;99.90;;;;;;4996772;28;20479;-85
2021/08/28 07:08:55;;;;;;;6.50;6.00;;;17.20;99.90;;;;;;4990622;28;20451;-84
2021/08/28 07:11:22;;;;;;;5.90;5.40;;;17.40;99.90;;;;;;5000357;28;21003;-83
2021/08/28 07:13:52;;;;;;;5.50;5.10;;;17.40;99.90;;;;;;4998331;28;20453;-84
2021/08/28 07:16:19;;;;;;;6.50;5.90;;;17.50;99.90;;;;;;4998825;28;21020;-85
2021/08/28 07:18:45;;;;;;;6.23;5.73;;;17.60;99.90;;;;;;4992898;28;20551;-84
2021/08/28 07:21:13;;;;;;;6.03;5.43;;;17.60;99.90;;;;;;4982582;28;20491;-84
2021/08/28 07:23:40;;;;;;;6.57;5.97;;;17.50;99.90;;;;;;4982326;28;20971;-82
2021/08/28 07:26:07;;;;;;;6.50;5.90;;;17.40;99.90;;;;;;4993373;28;20467;-83
2021/08/28 07:28:33;;;;;;;6.50;5.90;;;17.50;99.90;;;;;;4981315;28;20466;-84
2021/08/28 07:31:02;;;;;;;7.77;7.07;;;17.60;99.90;;;;;;4985749;28;20474;-84
2021/08/28 07:33:29;;;;;;;7.37;6.70;;;17.50;99.90;;;;;;4993729;28;20444;-83
2021/08/28 07:35:55;;;;;;;10.23;6.80;;;17.60;99.90;;;;;;4995355;28;20821;-83
2021/08/28 07:38:22;;;;;;;7.83;7.23;;;17.60;99.90;;;;;;4998365;28;20492;-84
2021/08/28 07:40:49;;;;;;;8.00;7.03;;;17.80;99.90;;;;;;4998256;28;20526;-82
2021/08/28 07:43:17;;;;;;;8.83;7.13;;;17.70;99.90;;;;;;4981561;28;20918;-83
2021/08/28 07:45:44;;;;;;;8.87;7.90;;;17.70;99.90;;;;;;4994441;28;20452;-84
2021/08/28 07:48:11;;;;;;;8.87;7.97;;;17.80;99.90;;;;;;4989222;28;20453;-84
2021/08/28 07:50:37;;;;;;;8.43;7.70;;;17.80;99.90;;;;;;4994830;28;20463;-84
2021/08/28 07:53:04;;;;;;;8.33;7.07;;;17.80;99.90;;;;;;4993823;28;20455;-84
2021/08/28 07:55:31;;;;;;;7.20;6.60;;;17.70;99.90;;;;;;4996947;28;20455;-84
2021/08/28 07:57:58;;;;;;;8.90;8.10;;;17.70;99.90;;;;;;4988635;28;20661;-84
2021/08/28 08:00:24;;;;;;;11.73;8.37;;;17.80;99.90;;;;;;4985290;28;20483;-84
2021/08/28 08:02:51;;;;;;;9.30;8.33;;;17.90;99.90;;;;;;4975446;28;20487;-83
2021/08/28 08:05:18;;;;;;;9.00;8.10;;;18.10;99.90;;;;;;4999291;28;21043;-83
2021/08/28 08:07:44;;;;;;;9.77;8.00;;;18.00;99.90;;;;;;5003742;28;20467;-83
2021/08/28 08:10:11;;;;;;;8.90;7.80;;;18.10;99.90;;;;;;5005215;28;20452;-86
2021/08/28 08:12:38;;;;;;;8.87;8.07;;;18.00;99.90;;;;;;4995634;28;20475;-82
2021/08/28 08:15:05;;;;;;;8.40;7.60;;;18.10;99.90;;;;;;4999813;28;20455;-82
2021/08/28 08:17:32;;;;;;;9.63;8.67;;;18.00;99.90;;;;;;4992849;28;20493;-83
2021/08/28 08:19:59;;;;;;;8.97;7.73;;;18.30;99.90;;;;;;4976719;28;20488;-84
2021/08/28 08:22:25;;;;;;;9.30;7.17;;;18.30;99.90;;;;;;4997625;28;20453;-83
2021/08/28 08:24:52;;;;;;;9.40;7.50;;;18.30;99.90;;;;;;4993888;28;20482;-81
2021/08/28 08:27:19;;;;;;;7.47;6.07;;;18.20;99.90;;;;;;4987845;28;20475;-84
2021/08/28 08:29:45;;;;;;;7.17;5.90;;;18.30;99.90;;;;;;5001580;28;20458;-81
2021/08/28 08:32:14;;;;;;;6.70;5.87;;;18.40;99.90;;;;;;4987498;28;20471;-85
2021/08/28 08:34:41;;;;;;;6.47;5.83;;;19.00;99.90;;;;;;5009674;28;20439;-85
2021/08/28 08:37:08;;;;;;;6.00;5.50;;;19.10;99.90;;;;;;5009873;28;20487;-85
2021/08/28 08:39:34;;;;;;;5.80;5.30;;;19.00;99.90;;;;;;5015427;28;20477;-83
2021/08/28 08:42:02;;;;;;;5.77;5.27;;;18.90;99.90;;;;;;4996313;28;20983;-82
2021/08/28 08:44:31;;;;;;;6.80;6.20;;;18.90;99.90;;;;;;4989408;28;20469;-83
2021/08/28 08:46:58;;;;;;;7.30;6.60;;;18.80;99.90;;;;;;5001644;28;20541;-83
2021/08/28 08:49:25;;;;;;;7.37;6.67;;;18.70;99.90;;;;;;5002179;28;20459;-84
2021/08/28 08:51:53;;;;;;;7.43;6.70;;;18.70;99.90;;;;;;5003058;28;20494;-83
2021/08/28 08:54:20;;;;;;;6.70;6.20;;;18.60;99.90;;;;;;5006745;28;20439;-85
2021/08/28 08:56:47;;;;;;;7.33;6.60;;;18.60;99.90;;;;;;5015431;28;20480;-83
2021/08/28 08:59:14;;;;;;;7.63;7.03;;;18.70;99.90;;;;;;5003653;28;20470;-85
2021/08/28 09:01:40;;;;;;;7.60;6.90;;;18.90;99.90;;;;;;4988404;28;20447;-83
2021/08/28 09:04:08;;;;;;;11.43;10.27;;;19.60;99.90;;;;;;4988518;28;20480;-84
2021/08/28 09:06:34;;;;;;;9.77;7.97;;;19.60;99.90;;;;;;4993046;28;20478;-83
2021/08/28 09:09:01;;;;;;;7.90;7.10;;;19.50;99.90;;;;;;4980732;28;20451;-83
2021/08/28 09:11:32;;;;;;;7.90;7.20;;;19.50;99.90;;;;;;4990072;28;20535;-87
2021/08/28 09:14:20;;;;;;;8.97;8.17;;;19.40;99.90;;;;;;4988528;28;20452;-85
2021/08/28 09:16:48;;;;;;;7.73;7.13;;;19.10;99.90;;;;;;4994908;28;20466;-83
2021/08/28 09:19:19;;;;;;;8.50;7.43;;;19.10;99.90;;;;;;4999232;28;20459;-86
2021/08/28 09:21:46;;;;;;;8.60;7.90;;;19.10;99.90;;;;;;4998294;28;20447;-85
2021/08/28 09:24:14;;;;;;;8.23;7.40;;;18.90;99.90;;;;;;4981352;28;20463;-84
2021/08/28 09:26:45;;;;;;;8.43;7.67;;;18.80;99.90;;;;;;4988243;28;20471;-85
2021/08/28 09:29:14;;;;;;;7.80;7.10;;;19.20;99.90;;;;;;4987269;28;20464;-84
2021/08/28 09:31:45;;;;;;;8.37;7.57;;;19.00;99.90;;;;;;4987024;28;20466;-83
2021/08/28 09:34:28;;;;;;;8.90;8.10;;;18.80;99.90;;;;;;4973127;28;20467;-82
2021/08/28 09:37:01;;;;;;;9.40;8.50;;;19.00;99.90;;;;;;5001180;28;20471;-84
2021/08/28 09:39:40;;;;;;;9.03;8.13;;;19.10;99.90;;;;;;5000814;28;20450;-84
2021/08/28 09:42:08;;;;;;;9.30;8.50;;;19.10;99.90;;;;;;5006672;28;21102;-84
2021/08/28 09:44:41;;;;;;;8.27;7.60;;;19.10;99.90;;;;;;5001480;28;20478;-82
2021/08/28 09:47:08;;;;;;;9.60;8.70;;;19.20;99.90;;;;;;5002328;28;20553;-84
2021/08/28 09:49:35;;;;;;;9.43;8.63;;;19.20;99.90;;;;;;5009278;28;20459;-83
2021/08/28 09:52:02;;;;;;;9.23;8.53;;;19.30;99.90;;;;;;4993977;28;20474;-81
2021/08/28 09:54:28;;;;;;;9.67;8.90;;;19.50;99.90;;;;;;5010469;28;20450;-80
2021/08/28 09:57:00;;;;;;;9.53;8.57;;;19.50;99.90;;;;;;5009016;28;20470;-81
2021/08/28 09:59:27;;;;;;;9.60;8.70;;;19.40;99.90;;;;;;5009581;28;20454;-83
2021/08/28 10:01:54;;;;;;;8.63;7.83;;;19.40;99.90;;;;;;5004399;28;20459;-85
2021/08/28 10:04:21;;;;;;;8.90;8.10;;;19.50;99.90;;;;;;5003905;28;20465;-83
2021/08/28 10:06:49;;;;;;;8.23;7.43;;;19.70;99.90;;;;;;5017435;28;20466;-85
2021/08/28 10:09:17;;;;;;;8.20;7.50;;;19.90;99.90;;;;;;5015023;28;20451;-84
2021/08/28 10:11:49;;;;;;;7.90;7.20;;;20.00;99.90;;;;;;4998686;28;20506;-85
2021/08/28 10:14:18;;;;;;;8.03;7.30;;;19.90;99.90;;;;;;5012487;28;20479;-84
2021/08/28 10:16:47;;;;;;;8.33;7.53;;;20.00;99.90;;;;;;5018013;28;20470;-86
2021/08/28 10:19:16;;;;;;;7.10;6.00;;;20.60;99.90;;;;;;5015685;28;20474;-86
2021/08/28 10:21:49;;;;;;;6.50;5.90;;;21.60;99.90;;;;;;4991391;28;20483;-85
2021/08/28 10:24:18;;;;;;;7.47;6.80;;;22.30;98.70;;;;;;5014896;28;20534;-84
2021/08/28 10:26:45;;;;;;;6.17;5.67;;;22.30;98.30;;;;;;5002251;28;20545;-84
2021/08/28 10:29:16;;;;;;;6.33;5.73;;;22.70;97.30;;;;;;5015932;28;20547;-83
2021/08/28 10:31:44;;;;;;;6.57;5.97;;;22.90;96.40;;;;;;4976566;28;20460;-83
2021/08/28 10:34:11;;;;;;;6.67;6.07;;;23.20;95.10;;;;;;4990961;28;21193;-85
2021/08/28 10:36:38;;;;;;;5.77;5.27;;;23.00;94.80;;;;;;5004047;28;20466;-83
2021/08/28 10:39:06;;;;;;;6.60;6.07;;;22.60;95.40;;;;;;4980162;28;20448;-84
2021/08/28 10:41:35;;;;;;;5.90;5.40;;;22.30;96.00;;;;;;4990219;28;20487;-85
2021/08/28 10:44:02;;;;;;;5.10;4.70;;;22.00;96.30;;;;;;5002762;28;20462;-86
2021/08/28 10:46:32;;;;;;;6.97;4.83;;;21.90;96.00;;;;;;4999524;28;20558;-83
2021/08/28 10:49:01;;;;;;;5.03;4.53;;;21.70;96.60;;;;;;4983847;28;20459;-84
2021/08/28 10:51:33;;;;;;;5.47;4.47;;;21.70;97.20;;;;;;5003640;28;20446;-84
2021/08/28 10:54:06;;;;;;;4.67;4.27;;;21.80;95.90;;;;;;4997579;28;20543;-84
2021/08/28 10:56:55;;;;;;;5.57;5.07;;;21.60;96.00;;;;;;4986799;28;20459;-85
2021/08/28 10:59:25;;;;;;;5.20;4.70;;;22.00;94.80;;;;;;4984025;28;21127;-83
2021/08/28 11:01:52;;;;;;;4.53;4.17;;;21.80;95.00;;;;;;5002708;28;20483;-83
2021/08/28 11:04:30;;;;;;;4.60;3.90;;;21.90;94.90;;;;;;4985684;28;20447;-83
2021/08/28 11:07:39;;;;;;;5.63;4.60;;;21.90;94.60;;;;;;5001990;28;20485;-82
2021/08/28 11:10:25;;;;;;;5.63;4.50;;;22.00;95.10;;;;;;4993001;28;20546;-84
2021/08/28 11:13:03;;;;;;;5.30;4.80;;;22.30;94.40;;;;;;4982161;28;20466;-83
2021/08/28 11:15:33;;;;;;;4.83;4.37;;;22.30;94.90;;;;;;4981312;28;20456;-84
2021/08/28 11:18:33;;;;;;;4.60;4.20;;;22.40;94.10;;;;;;4981027;28;20472;-84
2021/08/28 11:21:07;;;;;;;5.53;4.70;;;22.40;94.40;;;;;;4992635;28;20479;-85
2021/08/28 11:23:42;;;;;;;5.07;4.57;;;22.30;94.50;;;;;;5001316;28;20564;-79
2021/08/28 11:26:09;;;;;;;5.43;4.97;;;21.90;95.00;;;;;;5004071;28;20463;-84
2021/08/28 11:28:39;;;;;;;5.40;5.00;;;21.80;95.30;;;;;;5004100;28;20443;-84
2021/08/28 11:31:06;;;;;;;4.53;4.13;;;21.50;95.80;;;;;;4999334;28;20523;-85
2021/08/28 11:33:35;;;;;;;6.10;4.10;;;21.30;96.60;;;;;;4982550;28;20460;-85
2021/08/28 11:36:18;;;;;;;4.50;4.10;;;21.70;96.40;;;;;;4987946;28;20465;-85
2021/08/28 11:38:53;;;;;;;4.30;4.00;;;22.10;95.10;;;;;;5003035;28;20439;-85
2021/08/28 11:41:25;;;;;;;6.20;5.13;;;22.00;94.70;;;;;;4978039;28;20498;-84
2021/08/28 11:43:54;;;;;;;5.20;4.70;;;21.90;94.80;;;;;;4984674;28;20447;-84
2021/08/28 11:46:26;;;;;;;4.30;3.93;;;22.20;94.70;;;;;;4999796;28;20486;-83
2021/08/28 11:48:54;;;;;;;5.10;4.70;;;22.20;94.70;;;;;;4986729;28;20452;-84
2021/08/28 11:51:22;;;;;;;4.70;4.30;;;22.60;94.20;;;;;;4968812;28;20470;-83
2021/08/28 11:53:57;;;;;;;5.10;4.17;;;22.90;93.00;;;;;;4998223;28;21041;-85
2021/08/28 11:56:26;;;;;;;4.73;4.33;;;22.50;92.80;;;;;;4971462;28;20552;-84
2021/08/28 11:59:02;;;;;;;4.27;3.87;;;22.20;93.70;;;;;;4990078;28;20458;-85
2021/08/28 12:01:47;;;;;;;3.80;3.50;;;21.90;94.00;;;;;;4982764;28;20497;-85
2021/08/28 12:04:18;;;;;;;4.50;4.10;;;21.70;94.10;;;;;;4995776;28;20454;-85
2021/08/28 12:06:52;;;;;;;4.77;4.37;;;21.60;94.60;;;;;;4997423;28;20530;-84
2021/08/28 12:09:22;;;;;;;4.77;3.63;;;21.70;94.70;;;;;;4979897;28;20451;-84
2021/08/28 12:11:51;;;;;;;4.13;3.80;;;21.70;94.20;;;;;;4999721;28;20448;-85
2021/08/28 12:14:19;;;;;;;4.93;4.47;;;21.50;94.60;;;;;;4984790;28;20464;-83
2021/08/28 12:16:46;;;;;;;5.87;4.60;;;21.50;95.00;;;;;;4961961;28;20493;-84
2021/08/28 12:19:16;;;;;;;4.17;3.87;;;21.60;95.00;;;;;;4954141;28;20836;-84
2021/08/28 12:21:48;;;;;;;3.93;3.70;;;22.30;94.70;;;;;;4967594;28;22047;-84
2021/08/28 12:24:23;;;;;;;3.80;3.50;;;22.70;93.30;;;;;;4948987;28;20574;-84
2021/08/28 12:26:53;;;;;;;3.60;3.30;;;23.30;93.20;;;;;;4951755;28;20466;-84
2021/08/28 12:29:32;;;;;;;4.77;4.10;;;24.20;91.30;;;;;;4952295;28;20811;-85
2021/08/28 12:32:10;;;;;;;4.00;3.70;;;24.50;89.70;;;;;;4947261;28;20466;-84
2021/08/28 12:34:45;;;;;;;3.90;3.53;;;24.30;89.90;;;;;;4949522;28;20461;-85
2021/08/28 12:37:15;;;;;;;6.03;4.40;;;24.30;90.60;;;;;;4957585;28;20853;-83
2021/08/28 12:39:48;;;;;;;3.60;3.30;;;24.60;90.00;;;;;;4946779;28;20521;-83
2021/08/28 12:42:17;;;;;;;9.03;4.50;;;24.90;88.30;;;;;;4946274;28;20550;-85
2021/08/28 12:44:48;;;;;;;4.47;4.03;;;24.60;88.70;;;;;;4962778;28;20527;-84
2021/08/28 12:47:21;;;;;;;4.10;3.80;;;24.80;87.90;;;;;;4946295;28;20494;-84
2021/08/28 12:49:51;;;;;;;4.93;4.03;;;24.30;88.50;;;;;;4963590;28;20450;-84